sensor_id;sensor_type;location;lat;lon;timestamp;P1;durP1;ratioP1;P2;durP2;ratioP2
69985;SDS011;57328;52.054;5.294;2023-08-12T00:01:11;13.35;;;5.85;;
69985;SDS011;57328;52.054;5.294;2023-08-12T00:03:38;12.82;;;5.50;;
69985;SDS011;57328;52.054;5.294;2023-08-12T00:06:05;14.57;;;4.88;;
69985;SDS011;57328;52.054;5.294;2023-08-12T00:08:33;11.80;;;5.53;;
69985;SDS011;57328;52.054;5.294;2023-08-12T00:11:00;13.40;;;5.95;;
69985;SDS011;57328;52.054;5.294;2023-08-12T00:13:27;14.13;;;5.88;;
69985;SDS011;57328;52.054;5.294;2023-08-12T00:15:55;13.27;;;5.28;;
69985;SDS011;57328;52.054;5.294;2023-08-12T00:18:22;13.50;;;5.47;;
69985;SDS011;57328;52.054;5.294;2023-08-12T00:20:50;13.23;;;5.60;;
69985;SDS011;57328;52.054;5.294;2023-08-12T00:23:17;13.77;;;5.57;;
69985;SDS011;57328;52.054;5.294;2023-08-12T00:25:45;12.45;;;5.43;;
69985;SDS011;57328;52.054;5.294;2023-08-12T00:28:12;14.90;;;5.70;;
69985;SDS011;57328;52.054;5.294;2023-08-12T00:30:39;11.63;;;5.47;;
69985;SDS011;57328;52.054;5.294;2023-08-12T00:33:06;12.88;;;5.75;;
69985;SDS011;57328;52.054;5.294;2023-08-12T00:35:34;15.27;;;5.60;;
69985;SDS011;57328;52.054;5.294;2023-08-12T00:38:01;17.92;;;5.82;;
69985;SDS011;57328;52.054;5.294;2023-08-12T00:40:28;16.17;;;6.60;;
69985;SDS011;57328;52.054;5.294;2023-08-12T00:42:56;18.73;;;6.45;;
69985;SDS011;57328;52.054;5.294;2023-08-12T00:45:24;14.40;;;6.03;;
69985;SDS011;57328;52.054;5.294;2023-08-12T00:47:51;17.27;;;6.22;;
69985;SDS011;57328;52.054;5.294;2023-08-12T00:50:18;16.30;;;6.07;;
69985;SDS011;57328;52.054;5.294;2023-08-12T00:52:47;13.98;;;6.93;;
69985;SDS011;57328;52.054;5.294;2023-08-12T00:55:14;16.02;;;7.38;;
69985;SDS011;57328;52.054;5.294;2023-08-12T00:57:42;15.35;;;6.10;;
69985;SDS011;57328;52.054;5.294;2023-08-12T01:00:09;18.15;;;6.85;;
69985;SDS011;57328;52.054;5.294;2023-08-12T01:02:36;14.55;;;6.78;;
69985;SDS011;57328;52.054;5.294;2023-08-12T01:05:04;16.88;;;6.28;;
69985;SDS011;57328;52.054;5.294;2023-08-12T01:07:31;14.82;;;6.13;;
69985;SDS011;57328;52.054;5.294;2023-08-12T01:09:59;16.30;;;6.53;;
69985;SDS011;57328;52.054;5.294;2023-08-12T01:12:29;16.75;;;6.25;;
69985;SDS011;57328;52.054;5.294;2023-08-12T01:17:24;13.27;;;6.15;;
69985;SDS011;57328;52.054;5.294;2023-08-12T01:22:41;14.05;;;5.60;;
69985;SDS011;57328;52.054;5.294;2023-08-12T01:25:11;15.25;;;6.45;;
69985;SDS011;57328;52.054;5.294;2023-08-12T01:27:38;13.48;;;6.18;;
69985;SDS011;57328;52.054;5.294;2023-08-12T01:30:05;15.55;;;6.68;;
69985;SDS011;57328;52.054;5.294;2023-08-12T01:32:41;15.20;;;6.32;;
69985;SDS011;57328;52.054;5.294;2023-08-12T01:35:14;13.55;;;5.97;;
69985;SDS011;57328;52.054;5.294;2023-08-12T01:37:44;20.17;;;6.90;;
69985;SDS011;57328;52.054;5.294;2023-08-12T01:40:12;17.38;;;6.80;;
69985;SDS011;57328;52.054;5.294;2023-08-12T01:42:41;15.88;;;6.50;;
69985;SDS011;57328;52.054;5.294;2023-08-12T01:45:09;15.18;;;6.40;;
69985;SDS011;57328;52.054;5.294;2023-08-12T01:47:37;16.75;;;7.05;;
69985;SDS011;57328;52.054;5.294;2023-08-12T01:50:04;16.00;;;6.75;;
69985;SDS011;57328;52.054;5.294;2023-08-12T01:52:32;17.70;;;7.53;;
69985;SDS011;57328;52.054;5.294;2023-08-12T01:55:00;17.73;;;8.13;;
69985;SDS011;57328;52.054;5.294;2023-08-12T01:57:27;19.88;;;8.32;;
69985;SDS011;57328;52.054;5.294;2023-08-12T01:59:54;19.13;;;8.70;;
69985;SDS011;57328;52.054;5.294;2023-08-12T02:02:21;18.08;;;8.48;;
69985;SDS011;57328;52.054;5.294;2023-08-12T02:04:49;21.13;;;9.88;;
69985;SDS011;57328;52.054;5.294;2023-08-12T02:07:16;21.00;;;10.35;;
69985;SDS011;57328;52.054;5.294;2023-08-12T02:09:43;21.33;;;10.30;;
69985;SDS011;57328;52.054;5.294;2023-08-12T02:12:11;24.45;;;11.65;;
69985;SDS011;57328;52.054;5.294;2023-08-12T02:14:38;29.92;;;11.82;;
69985;SDS011;57328;52.054;5.294;2023-08-12T02:17:05;22.88;;;10.73;;
69985;SDS011;57328;52.054;5.294;2023-08-12T02:19:33;22.88;;;11.07;;
69985;SDS011;57328;52.054;5.294;2023-08-12T02:22:03;27.33;;;11.50;;
69985;SDS011;57328;52.054;5.294;2023-08-12T02:24:31;23.77;;;11.40;;
69985;SDS011;57328;52.054;5.294;2023-08-12T02:26:58;24.05;;;11.57;;
69985;SDS011;57328;52.054;5.294;2023-08-12T02:29:25;24.65;;;12.05;;
69985;SDS011;57328;52.054;5.294;2023-08-12T02:31:53;26.10;;;12.10;;
69985;SDS011;57328;52.054;5.294;2023-08-12T02:34:20;26.95;;;11.60;;
69985;SDS011;57328;52.054;5.294;2023-08-12T02:36:47;29.52;;;11.63;;
69985;SDS011;57328;52.054;5.294;2023-08-12T02:39:14;21.95;;;12.23;;
69985;SDS011;57328;52.054;5.294;2023-08-12T02:41:42;24.23;;;11.57;;
69985;SDS011;57328;52.054;5.294;2023-08-12T02:44:09;28.60;;;12.15;;
69985;SDS011;57328;52.054;5.294;2023-08-12T02:46:37;29.63;;;12.55;;
69985;SDS011;57328;52.054;5.294;2023-08-12T02:49:04;25.60;;;12.18;;
69985;SDS011;57328;52.054;5.294;2023-08-12T02:51:31;25.35;;;11.50;;
69985;SDS011;57328;52.054;5.294;2023-08-12T02:53:58;23.05;;;11.40;;
69985;SDS011;57328;52.054;5.294;2023-08-12T02:56:26;26.52;;;11.35;;
69985;SDS011;57328;52.054;5.294;2023-08-12T02:58:53;24.83;;;12.10;;
69985;SDS011;57328;52.054;5.294;2023-08-12T03:01:20;26.52;;;11.98;;
69985;SDS011;57328;52.054;5.294;2023-08-12T03:03:48;26.77;;;12.40;;
69985;SDS011;57328;52.054;5.294;2023-08-12T03:06:15;26.20;;;12.27;;
69985;SDS011;57328;52.054;5.294;2023-08-12T03:08:43;26.95;;;12.00;;
69985;SDS011;57328;52.054;5.294;2023-08-12T03:11:11;27.40;;;12.15;;
69985;SDS011;57328;52.054;5.294;2023-08-12T03:13:38;24.10;;;11.98;;
69985;SDS011;57328;52.054;5.294;2023-08-12T03:16:08;21.30;;;12.00;;
69985;SDS011;57328;52.054;5.294;2023-08-12T03:18:37;24.38;;;12.30;;
69985;SDS011;57328;52.054;5.294;2023-08-12T03:21:06;25.27;;;11.75;;
69985;SDS011;57328;52.054;5.294;2023-08-12T03:23:34;26.85;;;11.80;;
69985;SDS011;57328;52.054;5.294;2023-08-12T03:26:02;24.27;;;12.65;;
69985;SDS011;57328;52.054;5.294;2023-08-12T03:28:30;24.52;;;12.00;;
69985;SDS011;57328;52.054;5.294;2023-08-12T03:30:57;24.38;;;12.55;;
69985;SDS011;57328;52.054;5.294;2023-08-12T03:33:25;22.70;;;11.45;;
69985;SDS011;57328;52.054;5.294;2023-08-12T03:35:52;24.77;;;12.18;;
69985;SDS011;57328;52.054;5.294;2023-08-12T03:38:19;23.10;;;11.75;;
69985;SDS011;57328;52.054;5.294;2023-08-12T03:40:47;24.50;;;11.75;;
69985;SDS011;57328;52.054;5.294;2023-08-12T03:43:14;22.33;;;11.50;;
69985;SDS011;57328;52.054;5.294;2023-08-12T03:45:42;24.40;;;10.65;;
69985;SDS011;57328;52.054;5.294;2023-08-12T03:48:09;23.50;;;11.05;;
69985;SDS011;57328;52.054;5.294;2023-08-12T03:50:37;23.23;;;10.90;;
69985;SDS011;57328;52.054;5.294;2023-08-12T03:53:04;20.75;;;10.32;;
69985;SDS011;57328;52.054;5.294;2023-08-12T03:55:32;20.75;;;10.35;;
69985;SDS011;57328;52.054;5.294;2023-08-12T03:58:00;20.40;;;10.25;;
69985;SDS011;57328;52.054;5.294;2023-08-12T04:00:27;22.73;;;10.35;;
69985;SDS011;57328;52.054;5.294;2023-08-12T04:02:55;21.88;;;9.80;;
69985;SDS011;57328;52.054;5.294;2023-08-12T04:05:22;20.13;;;9.63;;
69985;SDS011;57328;52.054;5.294;2023-08-12T04:07:50;18.70;;;10.07;;
69985;SDS011;57328;52.054;5.294;2023-08-12T04:10:17;21.58;;;9.93;;
69985;SDS011;57328;52.054;5.294;2023-08-12T04:12:44;19.45;;;10.20;;
69985;SDS011;57328;52.054;5.294;2023-08-12T04:15:11;21.55;;;10.60;;
69985;SDS011;57328;52.054;5.294;2023-08-12T04:17:38;20.13;;;9.95;;
69985;SDS011;57328;52.054;5.294;2023-08-12T04:20:08;21.77;;;11.18;;
69985;SDS011;57328;52.054;5.294;2023-08-12T04:22:35;19.92;;;11.18;;
69985;SDS011;57328;52.054;5.294;2023-08-12T04:25:03;21.98;;;11.25;;
69985;SDS011;57328;52.054;5.294;2023-08-12T04:27:30;22.38;;;10.95;;
69985;SDS011;57328;52.054;5.294;2023-08-12T04:29:57;22.75;;;11.27;;
69985;SDS011;57328;52.054;5.294;2023-08-12T04:32:25;23.52;;;11.23;;
69985;SDS011;57328;52.054;5.294;2023-08-12T04:34:52;21.35;;;11.07;;
69985;SDS011;57328;52.054;5.294;2023-08-12T04:37:19;18.75;;;10.85;;
69985;SDS011;57328;52.054;5.294;2023-08-12T04:39:47;20.98;;;9.50;;
69985;SDS011;57328;52.054;5.294;2023-08-12T04:42:14;20.55;;;9.73;;
69985;SDS011;57328;52.054;5.294;2023-08-12T04:44:41;21.60;;;9.90;;
69985;SDS011;57328;52.054;5.294;2023-08-12T04:47:08;17.27;;;8.75;;
69985;SDS011;57328;52.054;5.294;2023-08-12T04:49:36;17.85;;;10.10;;
69985;SDS011;57328;52.054;5.294;2023-08-12T04:52:04;17.90;;;9.50;;
69985;SDS011;57328;52.054;5.294;2023-08-12T04:54:33;18.40;;;9.43;;
69985;SDS011;57328;52.054;5.294;2023-08-12T04:57:00;19.45;;;9.82;;
69985;SDS011;57328;52.054;5.294;2023-08-12T04:59:27;20.23;;;10.15;;
69985;SDS011;57328;52.054;5.294;2023-08-12T05:01:55;18.65;;;9.25;;
69985;SDS011;57328;52.054;5.294;2023-08-12T05:04:30;19.95;;;9.85;;
69985;SDS011;57328;52.054;5.294;2023-08-12T05:06:57;20.15;;;9.88;;
69985;SDS011;57328;52.054;5.294;2023-08-12T05:09:25;25.77;;;10.77;;
69985;SDS011;57328;52.054;5.294;2023-08-12T05:11:52;19.92;;;9.88;;
69985;SDS011;57328;52.054;5.294;2023-08-12T05:14:19;22.08;;;9.65;;
69985;SDS011;57328;52.054;5.294;2023-08-12T05:16:47;20.35;;;10.52;;
69985;SDS011;57328;52.054;5.294;2023-08-12T05:19:14;21.95;;;9.88;;
69985;SDS011;57328;52.054;5.294;2023-08-12T05:21:41;23.83;;;10.30;;
69985;SDS011;57328;52.054;5.294;2023-08-12T05:24:09;24.45;;;10.35;;
69985;SDS011;57328;52.054;5.294;2023-08-12T05:26:37;20.95;;;10.60;;
69985;SDS011;57328;52.054;5.294;2023-08-12T05:29:04;21.25;;;10.48;;
69985;SDS011;57328;52.054;5.294;2023-08-12T05:31:32;21.70;;;10.45;;
69985;SDS011;57328;52.054;5.294;2023-08-12T05:33:59;22.08;;;10.27;;
69985;SDS011;57328;52.054;5.294;2023-08-12T05:36:26;22.73;;;10.18;;
69985;SDS011;57328;52.054;5.294;2023-08-12T05:38:54;19.45;;;9.70;;
69985;SDS011;57328;52.054;5.294;2023-08-12T05:41:21;21.45;;;10.18;;
69985;SDS011;57328;52.054;5.294;2023-08-12T05:43:48;19.70;;;10.40;;
69985;SDS011;57328;52.054;5.294;2023-08-12T05:46:16;21.90;;;9.85;;
69985;SDS011;57328;52.054;5.294;2023-08-12T05:48:43;19.80;;;9.80;;
69985;SDS011;57328;52.054;5.294;2023-08-12T05:51:10;20.10;;;10.02;;
69985;SDS011;57328;52.054;5.294;2023-08-12T05:53:38;17.85;;;9.77;;
69985;SDS011;57328;52.054;5.294;2023-08-12T05:56:05;23.08;;;10.20;;
69985;SDS011;57328;52.054;5.294;2023-08-12T05:58:32;20.52;;;10.05;;
69985;SDS011;57328;52.054;5.294;2023-08-12T06:01:00;19.08;;;9.30;;
69985;SDS011;57328;52.054;5.294;2023-08-12T06:03:27;24.77;;;10.52;;
69985;SDS011;57328;52.054;5.294;2023-08-12T06:05:54;18.67;;;9.68;;
69985;SDS011;57328;52.054;5.294;2023-08-12T06:08:22;20.15;;;9.30;;
69985;SDS011;57328;52.054;5.294;2023-08-12T06:10:49;18.10;;;8.77;;
69985;SDS011;57328;52.054;5.294;2023-08-12T06:13:16;19.38;;;8.60;;
69985;SDS011;57328;52.054;5.294;2023-08-12T06:15:43;20.05;;;8.07;;
69985;SDS011;57328;52.054;5.294;2023-08-12T06:18:11;15.52;;;7.68;;
69985;SDS011;57328;52.054;5.294;2023-08-12T06:20:38;16.25;;;8.07;;
69985;SDS011;57328;52.054;5.294;2023-08-12T06:23:06;19.42;;;8.43;;
69985;SDS011;57328;52.054;5.294;2023-08-12T06:25:36;16.67;;;8.20;;
69985;SDS011;57328;52.054;5.294;2023-08-12T06:28:04;19.30;;;8.65;;
69985;SDS011;57328;52.054;5.294;2023-08-12T06:30:31;18.15;;;8.30;;
69985;SDS011;57328;52.054;5.294;2023-08-12T06:32:58;19.90;;;8.77;;
69985;SDS011;57328;52.054;5.294;2023-08-12T06:35:26;15.23;;;8.15;;
69985;SDS011;57328;52.054;5.294;2023-08-12T06:37:53;15.95;;;8.07;;
69985;SDS011;57328;52.054;5.294;2023-08-12T06:40:21;16.45;;;8.05;;
69985;SDS011;57328;52.054;5.294;2023-08-12T06:42:48;15.80;;;7.13;;
69985;SDS011;57328;52.054;5.294;2023-08-12T06:45:15;16.60;;;6.75;;
69985;SDS011;57328;52.054;5.294;2023-08-12T06:47:42;15.10;;;7.13;;
69985;SDS011;57328;52.054;5.294;2023-08-12T06:50:10;11.75;;;6.65;;
69985;SDS011;57328;52.054;5.294;2023-08-12T06:52:37;11.85;;;6.03;;
69985;SDS011;57328;52.054;5.294;2023-08-12T06:55:10;12.13;;;5.82;;
69985;SDS011;57328;52.054;5.294;2023-08-12T06:57:37;11.00;;;6.07;;
69985;SDS011;57328;52.054;5.294;2023-08-12T07:00:05;10.43;;;5.95;;
69985;SDS011;57328;52.054;5.294;2023-08-12T07:02:32;12.38;;;6.25;;
69985;SDS011;57328;52.054;5.294;2023-08-12T07:05:00;11.05;;;5.80;;
69985;SDS011;57328;52.054;5.294;2023-08-12T07:07:27;10.50;;;5.75;;
69985;SDS011;57328;52.054;5.294;2023-08-12T07:09:55;12.32;;;6.00;;
69985;SDS011;57328;52.054;5.294;2023-08-12T07:12:22;14.63;;;7.07;;
69985;SDS011;57328;52.054;5.294;2023-08-12T07:14:49;12.82;;;6.35;;
69985;SDS011;57328;52.054;5.294;2023-08-12T07:17:16;10.60;;;6.25;;
69985;SDS011;57328;52.054;5.294;2023-08-12T07:19:44;12.63;;;6.20;;
69985;SDS011;57328;52.054;5.294;2023-08-12T07:22:11;10.88;;;5.60;;
69985;SDS011;57328;52.054;5.294;2023-08-12T07:24:39;15.05;;;6.63;;
69985;SDS011;57328;52.054;5.294;2023-08-12T07:27:06;11.93;;;6.68;;
69985;SDS011;57328;52.054;5.294;2023-08-12T07:29:33;12.70;;;6.60;;
69985;SDS011;57328;52.054;5.294;2023-08-12T07:32:00;11.35;;;5.80;;
69985;SDS011;57328;52.054;5.294;2023-08-12T07:34:28;10.30;;;5.40;;
69985;SDS011;57328;52.054;5.294;2023-08-12T07:36:57;11.60;;;4.70;;
69985;SDS011;57328;52.054;5.294;2023-08-12T07:39:24;9.57;;;5.20;;
69985;SDS011;57328;52.054;5.294;2023-08-12T07:41:51;8.23;;;4.07;;
69985;SDS011;57328;52.054;5.294;2023-08-12T07:44:18;7.32;;;3.88;;
69985;SDS011;57328;52.054;5.294;2023-08-12T07:46:46;7.82;;;4.13;;
69985;SDS011;57328;52.054;5.294;2023-08-12T07:49:13;9.93;;;4.43;;
69985;SDS011;57328;52.054;5.294;2023-08-12T07:54:09;8.43;;;3.83;;
69985;SDS011;57328;52.054;5.294;2023-08-12T07:56:36;8.20;;;4.13;;
69985;SDS011;57328;52.054;5.294;2023-08-12T07:59:04;6.40;;;3.40;;
69985;SDS011;57328;52.054;5.294;2023-08-12T08:01:31;6.45;;;3.58;;
69985;SDS011;57328;52.054;5.294;2023-08-12T08:04:00;8.02;;;4.30;;
69985;SDS011;57328;52.054;5.294;2023-08-12T08:06:27;8.10;;;3.72;;
69985;SDS011;57328;52.054;5.294;2023-08-12T08:08:55;7.15;;;4.05;;
69985;SDS011;57328;52.054;5.294;2023-08-12T08:11:24;6.70;;;3.70;;
69985;SDS011;57328;52.054;5.294;2023-08-12T08:13:51;7.85;;;3.53;;
69985;SDS011;57328;52.054;5.294;2023-08-12T08:16:18;6.38;;;3.28;;
69985;SDS011;57328;52.054;5.294;2023-08-12T08:18:45;4.85;;;2.75;;
69985;SDS011;57328;52.054;5.294;2023-08-12T08:21:13;5.50;;;2.50;;
69985;SDS011;57328;52.054;5.294;2023-08-12T08:23:40;4.95;;;2.60;;
69985;SDS011;57328;52.054;5.294;2023-08-12T08:26:08;7.20;;;2.30;;
69985;SDS011;57328;52.054;5.294;2023-08-12T08:28:37;5.05;;;2.08;;
69985;SDS011;57328;52.054;5.294;2023-08-12T08:31:04;3.75;;;2.00;;
69985;SDS011;57328;52.054;5.294;2023-08-12T08:33:31;3.60;;;2.00;;
69985;SDS011;57328;52.054;5.294;2023-08-12T08:35:59;3.13;;;1.92;;
69985;SDS011;57328;52.054;5.294;2023-08-12T08:38:26;4.10;;;2.00;;
69985;SDS011;57328;52.054;5.294;2023-08-12T08:40:53;3.75;;;2.00;;
69985;SDS011;57328;52.054;5.294;2023-08-12T08:43:21;2.83;;;1.70;;
69985;SDS011;57328;52.054;5.294;2023-08-12T08:45:49;3.67;;;1.88;;
69985;SDS011;57328;52.054;5.294;2023-08-12T08:48:17;4.10;;;1.83;;
69985;SDS011;57328;52.054;5.294;2023-08-12T08:50:45;2.47;;;1.48;;
69985;SDS011;57328;52.054;5.294;2023-08-12T08:53:12;4.57;;;1.08;;
69985;SDS011;57328;52.054;5.294;2023-08-12T08:55:41;2.42;;;0.90;;
69985;SDS011;57328;52.054;5.294;2023-08-12T08:58:08;4.45;;;1.20;;
69985;SDS011;57328;52.054;5.294;2023-08-12T09:00:36;5.32;;;1.40;;
69985;SDS011;57328;52.054;5.294;2023-08-12T09:03:04;4.38;;;1.30;;
69985;SDS011;57328;52.054;5.294;2023-08-12T09:05:32;6.05;;;1.27;;
69985;SDS011;57328;52.054;5.294;2023-08-12T09:08:01;4.72;;;1.38;;
69985;SDS011;57328;52.054;5.294;2023-08-12T09:10:29;4.88;;;1.20;;
69985;SDS011;57328;52.054;5.294;2023-08-12T09:12:56;7.95;;;1.30;;
69985;SDS011;57328;52.054;5.294;2023-08-12T09:17:52;3.92;;;1.00;;
69985;SDS011;57328;52.054;5.294;2023-08-12T09:20:19;5.25;;;1.48;;
69985;SDS011;57328;52.054;5.294;2023-08-12T09:22:47;5.22;;;1.27;;
69985;SDS011;57328;52.054;5.294;2023-08-12T09:25:22;5.68;;;1.23;;
69985;SDS011;57328;52.054;5.294;2023-08-12T09:27:49;5.65;;;1.63;;
69985;SDS011;57328;52.054;5.294;2023-08-12T09:30:20;5.72;;;1.33;;
69985;SDS011;57328;52.054;5.294;2023-08-12T09:33:02;5.07;;;1.40;;
69985;SDS011;57328;52.054;5.294;2023-08-12T09:35:33;5.30;;;1.50;;
69985;SDS011;57328;52.054;5.294;2023-08-12T09:38:05;5.93;;;1.80;;
69985;SDS011;57328;52.054;5.294;2023-08-12T09:40:33;6.47;;;1.60;;
69985;SDS011;57328;52.054;5.294;2023-08-12T09:43:01;3.85;;;1.45;;
69985;SDS011;57328;52.054;5.294;2023-08-12T09:45:30;6.40;;;1.40;;
69985;SDS011;57328;52.054;5.294;2023-08-12T09:47:57;6.35;;;1.48;;
69985;SDS011;57328;52.054;5.294;2023-08-12T09:50:25;6.32;;;1.77;;
69985;SDS011;57328;52.054;5.294;2023-08-12T09:52:53;9.02;;;1.60;;
69985;SDS011;57328;52.054;5.294;2023-08-12T09:57:49;7.22;;;1.63;;
69985;SDS011;57328;52.054;5.294;2023-08-12T10:00:19;4.38;;;1.80;;
69985;SDS011;57328;52.054;5.294;2023-08-12T10:02:48;5.72;;;1.58;;
69985;SDS011;57328;52.054;5.294;2023-08-12T10:05:18;7.75;;;1.83;;
69985;SDS011;57328;52.054;5.294;2023-08-12T10:07:47;5.05;;;1.38;;
69985;SDS011;57328;52.054;5.294;2023-08-12T10:10:14;5.55;;;1.60;;
69985;SDS011;57328;52.054;5.294;2023-08-12T10:12:42;6.78;;;1.45;;
69985;SDS011;57328;52.054;5.294;2023-08-12T10:15:13;5.57;;;1.42;;
69985;SDS011;57328;52.054;5.294;2023-08-12T10:17:41;5.50;;;1.67;;
69985;SDS011;57328;52.054;5.294;2023-08-12T10:20:12;8.43;;;2.05;;
69985;SDS011;57328;52.054;5.294;2023-08-12T10:22:40;8.27;;;2.10;;
69985;SDS011;57328;52.054;5.294;2023-08-12T10:25:07;5.20;;;1.80;;
69985;SDS011;57328;52.054;5.294;2023-08-12T10:27:37;7.22;;;1.65;;
69985;SDS011;57328;52.054;5.294;2023-08-12T10:30:05;7.20;;;1.95;;
69985;SDS011;57328;52.054;5.294;2023-08-12T10:32:34;6.28;;;1.73;;
69985;SDS011;57328;52.054;5.294;2023-08-12T10:35:01;8.30;;;1.92;;
69985;SDS011;57328;52.054;5.294;2023-08-12T10:37:31;5.72;;;1.60;;
69985;SDS011;57328;52.054;5.294;2023-08-12T10:40:02;7.88;;;2.17;;
69985;SDS011;57328;52.054;5.294;2023-08-12T10:42:46;6.38;;;1.77;;
69985;SDS011;57328;52.054;5.294;2023-08-12T10:45:15;4.78;;;1.23;;
69985;SDS011;57328;52.054;5.294;2023-08-12T10:47:51;5.55;;;1.35;;
69985;SDS011;57328;52.054;5.294;2023-08-12T10:50:23;9.20;;;1.40;;
69985;SDS011;57328;52.054;5.294;2023-08-12T10:52:52;5.63;;;1.40;;
69985;SDS011;57328;52.054;5.294;2023-08-12T10:55:24;7.15;;;2.13;;
69985;SDS011;57328;52.054;5.294;2023-08-12T10:57:52;7.55;;;1.80;;
69985;SDS011;57328;52.054;5.294;2023-08-12T11:00:23;6.82;;;1.65;;
69985;SDS011;57328;52.054;5.294;2023-08-12T11:02:54;7.90;;;1.60;;
69985;SDS011;57328;52.054;5.294;2023-08-12T11:05:22;7.90;;;1.77;;
69985;SDS011;57328;52.054;5.294;2023-08-12T11:07:56;5.78;;;1.60;;
69985;SDS011;57328;52.054;5.294;2023-08-12T11:10:27;5.85;;;1.58;;
69985;SDS011;57328;52.054;5.294;2023-08-12T11:12:58;6.28;;;1.60;;
69985;SDS011;57328;52.054;5.294;2023-08-12T11:15:32;10.13;;;2.17;;
69985;SDS011;57328;52.054;5.294;2023-08-12T11:18:10;8.20;;;1.50;;
69985;SDS011;57328;52.054;5.294;2023-08-12T11:20:37;5.35;;;1.40;;
69985;SDS011;57328;52.054;5.294;2023-08-12T11:23:05;6.43;;;1.50;;
69985;SDS011;57328;52.054;5.294;2023-08-12T11:28:00;8.10;;;1.40;;
69985;SDS011;57328;52.054;5.294;2023-08-12T11:30:28;6.43;;;1.50;;
69985;SDS011;57328;52.054;5.294;2023-08-12T11:32:58;6.25;;;1.23;;
69985;SDS011;57328;52.054;5.294;2023-08-12T11:35:26;7.70;;;1.40;;
69985;SDS011;57328;52.054;5.294;2023-08-12T11:37:54;6.68;;;1.40;;
69985;SDS011;57328;52.054;5.294;2023-08-12T11:40:25;8.48;;;1.50;;
69985;SDS011;57328;52.054;5.294;2023-08-12T11:42:53;6.55;;;1.30;;
69985;SDS011;57328;52.054;5.294;2023-08-12T11:47:48;6.10;;;1.20;;
69985;SDS011;57328;52.054;5.294;2023-08-12T11:50:22;7.18;;;1.20;;
69985;SDS011;57328;52.054;5.294;2023-08-12T11:52:50;5.85;;;1.30;;
69985;SDS011;57328;52.054;5.294;2023-08-12T11:57:44;7.43;;;1.50;;
69985;SDS011;57328;52.054;5.294;2023-08-12T12:00:12;6.40;;;1.40;;
69985;SDS011;57328;52.054;5.294;2023-08-12T12:03:02;7.88;;;1.33;;
69985;SDS011;57328;52.054;5.294;2023-08-12T12:05:29;4.60;;;1.33;;
69985;SDS011;57328;52.054;5.294;2023-08-12T12:07:58;6.30;;;1.42;;
69985;SDS011;57328;52.054;5.294;2023-08-12T12:10:26;8.80;;;1.52;;
69985;SDS011;57328;52.054;5.294;2023-08-12T12:12:59;7.10;;;1.33;;
69985;SDS011;57328;52.054;5.294;2023-08-12T12:15:27;9.48;;;1.40;;
69985;SDS011;57328;52.054;5.294;2023-08-12T12:17:54;7.97;;;1.35;;
69985;SDS011;57328;52.054;5.294;2023-08-12T12:20:23;5.05;;;1.08;;
69985;SDS011;57328;52.054;5.294;2023-08-12T12:22:53;6.35;;;1.40;;
69985;SDS011;57328;52.054;5.294;2023-08-12T12:25:22;5.90;;;1.30;;
69985;SDS011;57328;52.054;5.294;2023-08-12T12:27:50;6.93;;;1.58;;
69985;SDS011;57328;52.054;5.294;2023-08-12T12:30:17;4.75;;;1.33;;
69985;SDS011;57328;52.054;5.294;2023-08-12T12:32:45;8.10;;;1.67;;
69985;SDS011;57328;52.054;5.294;2023-08-12T12:35:12;6.38;;;1.63;;
69985;SDS011;57328;52.054;5.294;2023-08-12T12:37:40;4.78;;;1.20;;
69985;SDS011;57328;52.054;5.294;2023-08-12T12:40:09;9.30;;;1.30;;
69985;SDS011;57328;52.054;5.294;2023-08-12T12:42:36;6.78;;;1.50;;
69985;SDS011;57328;52.054;5.294;2023-08-12T12:45:05;5.63;;;1.23;;
69985;SDS011;57328;52.054;5.294;2023-08-12T12:47:32;8.07;;;1.90;;
69985;SDS011;57328;52.054;5.294;2023-08-12T12:49:59;12.63;;;2.00;;
69985;SDS011;57328;52.054;5.294;2023-08-12T12:52:28;7.22;;;1.75;;
69985;SDS011;57328;52.054;5.294;2023-08-12T12:54:55;7.72;;;1.60;;
69985;SDS011;57328;52.054;5.294;2023-08-12T12:57:23;7.90;;;1.95;;
69985;SDS011;57328;52.054;5.294;2023-08-12T12:59:51;7.13;;;1.42;;
69985;SDS011;57328;52.054;5.294;2023-08-12T13:02:18;8.07;;;1.45;;
69985;SDS011;57328;52.054;5.294;2023-08-12T13:04:46;5.85;;;1.35;;
69985;SDS011;57328;52.054;5.294;2023-08-12T13:07:15;7.95;;;1.55;;
69985;SDS011;57328;52.054;5.294;2023-08-12T13:09:43;6.60;;;1.60;;
69985;SDS011;57328;52.054;5.294;2023-08-12T13:12:10;9.10;;;1.70;;
69985;SDS011;57328;52.054;5.294;2023-08-12T13:14:38;7.72;;;1.60;;
69985;SDS011;57328;52.054;5.294;2023-08-12T13:17:05;5.20;;;1.42;;
69985;SDS011;57328;52.054;5.294;2023-08-12T13:19:32;9.75;;;1.85;;
69985;SDS011;57328;52.054;5.294;2023-08-12T13:22:00;7.47;;;1.70;;
69985;SDS011;57328;52.054;5.294;2023-08-12T13:24:28;7.70;;;1.95;;
69985;SDS011;57328;52.054;5.294;2023-08-12T13:26:56;7.60;;;1.70;;
69985;SDS011;57328;52.054;5.294;2023-08-12T13:29:25;6.57;;;1.85;;
69985;SDS011;57328;52.054;5.294;2023-08-12T13:31:52;7.32;;;1.60;;
69985;SDS011;57328;52.054;5.294;2023-08-12T13:34:20;7.68;;;1.80;;
69985;SDS011;57328;52.054;5.294;2023-08-12T13:36:47;8.10;;;1.67;;
69985;SDS011;57328;52.054;5.294;2023-08-12T13:39:14;5.70;;;1.40;;
69985;SDS011;57328;52.054;5.294;2023-08-12T13:41:42;9.55;;;1.63;;
69985;SDS011;57328;52.054;5.294;2023-08-12T13:44:09;9.73;;;1.85;;
69985;SDS011;57328;52.054;5.294;2023-08-12T13:46:37;13.02;;;2.38;;
69985;SDS011;57328;52.054;5.294;2023-08-12T13:49:04;9.15;;;1.80;;
69985;SDS011;57328;52.054;5.294;2023-08-12T13:53:59;9.25;;;1.67;;
69985;SDS011;57328;52.054;5.294;2023-08-12T13:56:26;8.50;;;1.70;;
69985;SDS011;57328;52.054;5.294;2023-08-12T13:58:57;7.30;;;1.58;;
69985;SDS011;57328;52.054;5.294;2023-08-12T14:01:24;9.00;;;1.55;;
69985;SDS011;57328;52.054;5.294;2023-08-12T14:03:52;6.82;;;1.65;;
69985;SDS011;57328;52.054;5.294;2023-08-12T14:06:19;8.70;;;1.85;;
69985;SDS011;57328;52.054;5.294;2023-08-12T14:08:47;9.52;;;1.85;;
69985;SDS011;57328;52.054;5.294;2023-08-12T14:11:14;7.10;;;1.80;;
69985;SDS011;57328;52.054;5.294;2023-08-12T14:13:42;7.43;;;1.60;;
69985;SDS011;57328;52.054;5.294;2023-08-12T14:16:09;6.82;;;1.55;;
69985;SDS011;57328;52.054;5.294;2023-08-12T14:18:36;10.43;;;1.80;;
69985;SDS011;57328;52.054;5.294;2023-08-12T14:21:03;7.43;;;1.60;;
69985;SDS011;57328;52.054;5.294;2023-08-12T14:23:31;9.05;;;1.77;;
69985;SDS011;57328;52.054;5.294;2023-08-12T14:25:58;7.93;;;1.90;;
69985;SDS011;57328;52.054;5.294;2023-08-12T14:28:25;7.30;;;1.90;;
69985;SDS011;57328;52.054;5.294;2023-08-12T14:30:53;13.07;;;1.85;;
69985;SDS011;57328;52.054;5.294;2023-08-12T14:33:20;6.95;;;1.80;;
69985;SDS011;57328;52.054;5.294;2023-08-12T14:35:50;7.25;;;1.65;;
69985;SDS011;57328;52.054;5.294;2023-08-12T14:38:20;7.90;;;1.48;;
69985;SDS011;57328;52.054;5.294;2023-08-12T14:40:48;9.15;;;1.63;;
69985;SDS011;57328;52.054;5.294;2023-08-12T14:43:15;8.30;;;1.75;;
69985;SDS011;57328;52.054;5.294;2023-08-12T14:45:45;10.60;;;1.77;;
69985;SDS011;57328;52.054;5.294;2023-08-12T14:48:13;10.25;;;2.05;;
69985;SDS011;57328;52.054;5.294;2023-08-12T14:50:44;8.13;;;1.75;;
69985;SDS011;57328;52.054;5.294;2023-08-12T14:53:11;6.47;;;1.65;;
69985;SDS011;57328;52.054;5.294;2023-08-12T14:55:39;9.23;;;1.70;;
69985;SDS011;57328;52.054;5.294;2023-08-12T14:58:06;8.07;;;1.67;;
69985;SDS011;57328;52.054;5.294;2023-08-12T15:00:33;9.45;;;1.77;;
69985;SDS011;57328;52.054;5.294;2023-08-12T15:03:01;9.85;;;1.85;;
69985;SDS011;57328;52.054;5.294;2023-08-12T15:05:29;7.57;;;1.45;;